Time;durP1;ratioP1;P1;durP2;ratioP2;P2;SDS_P1;SDS_P2;PMS_P1;PMS_P2;Temp;Humidity;BMP_temperature;BMP_pressure;BME280_temperature;BME280_humidity;BME280_pressure;Samples;Min_cycle;Max_cycle;Signal;HPM_P1;HPM_P2
2021/11/19 00:02:18;;;;;;;17.17;5.70;;;8.30;99.90;;;;;;5091403;28;20412;-57
2021/11/19 00:04:44;;;;;;;16.23;5.90;;;8.30;99.90;;;;;;5090742;28;20024;-57
2021/11/19 00:07:10;;;;;;;14.82;5.10;;;8.30;99.90;;;;;;5091370;28;20036;-56
2021/11/19 00:09:37;;;;;;;11.23;6.70;;;8.40;99.90;;;;;;5090409;28;20536;-61
2021/11/19 00:12:04;;;;;;;13.65;6.03;;;8.30;99.90;;;;;;5091769;28;20019;-57
2021/11/19 00:14:29;;;;;;;12.95;6.15;;;8.30;99.90;;;;;;5091174;28;20032;-56
2021/11/19 00:17:03;;;;;;;14.07;5.88;;;8.30;99.90;;;;;;5090390;28;20731;-54
2021/11/19 00:19:29;;;;;;;14.75;5.43;;;8.30;99.90;;;;;;5091295;28;20032;-56
2021/11/19 00:21:56;;;;;;;11.27;6.00;;;8.20;99.90;;;;;;5090957;28;20024;-57
2021/11/19 00:24:22;;;;;;;38.95;8.75;;;8.30;99.90;;;;;;5091499;28;20057;-57
2021/11/19 00:26:48;;;;;;;14.15;6.05;;;8.30;99.90;;;;;;5090910;28;20032;-57
2021/11/19 00:29:15;;;;;;;17.35;6.43;;;8.30;99.90;;;;;;5073016;28;20527;-57
2021/11/19 00:31:41;;;;;;;18.15;5.95;;;8.30;99.90;;;;;;5091069;28;20040;-58
2021/11/19 00:34:08;;;;;;;11.27;5.45;;;8.20;99.90;;;;;;5072615;28;20473;-56
2021/11/19 00:36:35;;;;;;;15.07;5.55;;;8.20;99.90;;;;;;5090963;28;20077;-58
2021/11/19 00:39:07;;;;;;;17.63;7.25;;;8.20;99.90;;;;;;5090210;28;20024;-57
2021/11/19 00:41:33;;;;;;;13.95;5.93;;;8.20;99.90;;;;;;5091026;28;20028;-57
2021/11/19 00:44:00;;;;;;;16.48;7.68;;;8.10;99.90;;;;;;5090419;28;20036;-57
2021/11/19 00:46:26;;;;;;;17.08;6.47;;;8.10;99.90;;;;;;5090641;28;20024;-57
2021/11/19 00:48:51;;;;;;;19.83;5.80;;;8.00;99.90;;;;;;5090353;28;20036;-57
2021/11/19 00:51:21;;;;;;;16.35;5.78;;;8.10;99.90;;;;;;5072819;28;20051;-57
2021/11/19 00:53:51;;;;;;;26.17;6.88;;;8.10;99.90;;;;;;5089997;28;20508;-57
2021/11/19 00:56:20;;;;;;;18.50;5.75;;;8.10;99.90;;;;;;5090682;28;20020;-57
2021/11/19 00:58:49;;;;;;;14.70;7.25;;;8.00;99.90;;;;;;5090420;28;20031;-57
2021/11/19 01:01:23;;;;;;;19.25;6.10;;;8.10;99.90;;;;;;5072622;28;20062;-57
2021/11/19 01:03:49;;;;;;;12.88;6.53;;;8.00;99.90;;;;;;5090353;28;20047;-57
2021/11/19 01:06:14;;;;;;;20.67;7.22;;;8.00;99.90;;;;;;5092201;28;20025;-57
2021/11/19 01:08:41;;;;;;;23.38;7.03;;;8.00;99.90;;;;;;5093789;28;20036;-58
2021/11/19 01:11:12;;;;;;;15.07;6.10;;;8.00;99.90;;;;;;5076382;28;20034;-57
2021/11/19 01:13:40;;;;;;;17.05;5.80;;;8.00;99.90;;;;;;5094756;28;20026;-57
2021/11/19 01:16:23;;;;;;;17.45;6.90;;;7.90;99.90;;;;;;5094344;28;20090;-57
2021/11/19 01:18:53;;;;;;;15.98;6.70;;;7.90;99.90;;;;;;5093804;28;20454;-57
2021/11/19 01:21:27;;;;;;;18.83;6.13;;;8.00;99.90;;;;;;5094058;28;20058;-57
2021/11/19 01:23:55;;;;;;;14.13;5.90;;;8.00;99.90;;;;;;5094167;28;20046;-58
2021/11/19 01:26:24;;;;;;;16.48;6.00;;;8.10;99.90;;;;;;5076067;28;20020;-57
2021/11/19 01:28:54;;;;;;;16.42;6.57;;;8.10;99.90;;;;;;5093473;28;20028;-56
2021/11/19 01:31:24;;;;;;;13.90;6.78;;;8.10;99.90;;;;;;5094330;28;20079;-57
2021/11/19 01:33:50;;;;;;;24.35;6.97;;;8.10;99.90;;;;;;5075392;28;20052;-57
2021/11/19 01:36:18;;;;;;;17.15;5.63;;;8.10;99.90;;;;;;5094109;28;20060;-57
2021/11/19 01:38:46;;;;;;;16.13;6.63;;;8.20;99.90;;;;;;5093151;28;20135;-58
2021/11/19 01:41:33;;;;;;;20.52;6.00;;;8.10;99.90;;;;;;5093924;28;20024;-57
2021/11/19 01:44:01;;;;;;;12.57;6.70;;;7.90;99.90;;;;;;5093314;28;20115;-56
2021/11/19 01:46:30;;;;;;;17.67;7.57;;;7.80;99.90;;;;;;5093666;28;20029;-56
2021/11/19 01:48:57;;;;;;;14.68;6.75;;;7.70;99.90;;;;;;5093032;28;20119;-57
2021/11/19 01:51:32;;;;;;;25.60;8.32;;;7.70;99.90;;;;;;5093764;28;20103;-57
2021/11/19 01:54:12;;;;;;;14.05;7.05;;;7.60;99.90;;;;;;5075018;28;20093;-57
2021/11/19 01:56:47;;;;;;;19.17;8.70;;;7.50;99.90;;;;;;5093473;28;20040;-57
2021/11/19 01:59:32;;;;;;;22.80;9.88;;;7.40;99.90;;;;;;5093549;28;20020;-57
2021/11/19 02:02:09;;;;;;;20.00;7.25;;;7.40;99.90;;;;;;5092454;28;20493;-56
2021/11/19 02:04:40;;;;;;;22.52;8.40;;;7.40;99.90;;;;;;5093982;28;20029;-56
2021/11/19 02:07:17;;;;;;;14.65;7.75;;;7.40;99.90;;;;;;5093322;28;20078;-57
2021/11/19 02:10:00;;;;;;;16.00;8.27;;;7.40;99.90;;;;;;5093004;28;20036;-71
2021/11/19 02:12:54;;;;;;;13.85;7.88;;;7.40;99.90;;;;;;5093466;28;20034;-56
2021/11/19 02:15:24;;;;;;;21.05;8.98;;;7.50;99.90;;;;;;5093502;28;20091;-57
2021/11/19 02:17:53;;;;;;;15.25;8.27;;;7.40;99.90;;;;;;5092442;28;20496;-57
2021/11/19 02:20:33;;;;;;;18.88;8.27;;;7.50;99.90;;;;;;5093374;28;20079;-58
2021/11/19 02:23:11;;;;;;;18.48;8.80;;;7.30;99.90;;;;;;5074654;28;20466;-57
2021/11/19 02:25:48;;;;;;;16.85;8.35;;;7.30;99.90;;;;;;5093639;28;20110;-57
2021/11/19 02:28:20;;;;;;;13.35;8.52;;;7.40;99.90;;;;;;5093199;28;20028;-57
2021/11/19 02:30:48;;;;;;;16.73;8.82;;;7.40;99.90;;;;;;5092760;28;20468;-58
2021/11/19 02:33:15;;;;;;;17.98;9.10;;;7.40;99.90;;;;;;5074663;28;20020;-56
2021/11/19 02:35:54;;;;;;;25.60;9.43;;;7.40;99.90;;;;;;5093093;28;20523;-57
2021/11/19 02:38:24;;;;;;;20.52;8.07;;;7.40;99.90;;;;;;5074845;28;20530;-57
2021/11/19 02:40:50;;;;;;;24.27;9.80;;;7.50;99.90;;;;;;5074216;28;20449;-58
2021/11/19 02:43:23;;;;;;;19.95;9.88;;;7.50;99.90;;;;;;5092967;28;20033;-57
2021/11/19 02:45:51;;;;;;;23.45;9.32;;;7.40;99.90;;;;;;5073983;28;20469;-57
2021/11/19 02:48:20;;;;;;;20.95;9.18;;;7.40;99.90;;;;;;5092747;28;20072;-57
2021/11/19 02:50:47;;;;;;;19.70;9.43;;;7.30;99.90;;;;;;5092175;28;20466;-58
2021/11/19 02:53:14;;;;;;;20.02;9.98;;;7.40;99.90;;;;;;5092480;28;20528;-57
2021/11/19 02:55:44;;;;;;;21.88;10.25;;;7.30;99.90;;;;;;5092436;28;20036;-58
2021/11/19 02:58:13;;;;;;;18.73;9.95;;;7.30;99.90;;;;;;5092273;28;20047;-57
2021/11/19 03:01:01;;;;;;;22.45;10.75;;;7.30;99.90;;;;;;5092538;28;20028;-57
2021/11/19 03:03:28;;;;;;;20.90;9.98;;;7.30;99.90;;;;;;5074414;28;20028;-56
2021/11/19 03:05:54;;;;;;;27.25;11.50;;;7.20;99.90;;;;;;5091920;28;20027;-57
2021/11/19 03:08:19;;;;;;;18.45;11.40;;;7.20;99.90;;;;;;5092380;28;20071;-57
2021/11/19 03:10:49;;;;;;;26.92;11.93;;;7.20;99.90;;;;;;5092070;28;20418;-57
2021/11/19 03:13:17;;;;;;;24.58;10.80;;;7.30;99.90;;;;;;5092316;28;20035;-57
2021/11/19 03:15:45;;;;;;;25.50;10.98;;;7.30;99.90;;;;;;5092081;28;20062;-56
2021/11/19 03:18:13;;;;;;;20.50;10.02;;;7.30;99.90;;;;;;5091793;28;20072;-57
2021/11/19 03:20:40;;;;;;;21.90;11.52;;;7.30;99.90;;;;;;5092106;28;20066;-57
2021/11/19 03:23:06;;;;;;;23.75;10.73;;;7.30;99.90;;;;;;5091605;28;20038;-57
2021/11/19 03:25:37;;;;;;;34.65;11.60;;;7.30;99.90;;;;;;5073802;28;20028;-57
2021/11/19 03:28:05;;;;;;;22.85;11.43;;;7.30;99.90;;;;;;5091511;28;20112;-57
2021/11/19 03:30:31;;;;;;;24.63;13.18;;;7.30;99.90;;;;;;5073201;28;20036;-57
2021/11/19 03:32:57;;;;;;;21.83;12.07;;;7.40;99.90;;;;;;5090969;28;20028;-57
2021/11/19 03:35:25;;;;;;;23.35;12.55;;;7.40;99.90;;;;;;5091929;28;20364;-57
2021/11/19 03:37:52;;;;;;;22.77;12.18;;;7.30;99.90;;;;;;5091246;28;20106;-56
2021/11/19 03:40:23;;;;;;;33.40;13.52;;;7.20;99.90;;;;;;5056985;28;20468;-57
2021/11/19 03:42:50;;;;;;;23.70;12.43;;;7.30;99.90;;;;;;5073128;28;20043;-61
2021/11/19 03:45:19;;;;;;;26.90;11.77;;;7.30;99.90;;;;;;5073256;28;20495;-57
2021/11/19 03:47:48;;;;;;;21.65;11.55;;;7.30;99.90;;;;;;5091071;28;20043;-57
2021/11/19 03:50:52;;;;;;;23.25;12.57;;;7.30;99.90;;;;;;5091643;28;20119;-57
2021/11/19 03:53:19;;;;;;;28.88;12.55;;;7.30;99.90;;;;;;4989631;28;20120;-57
2021/11/19 03:55:49;;;;;;;32.00;12.90;;;7.30;99.90;;;;;;5071733;28;20131;-56
2021/11/19 03:58:20;;;;;;;23.08;12.55;;;7.20;99.90;;;;;;5091482;28;20049;-57
2021/11/19 04:00:52;;;;;;;32.05;13.93;;;7.20;99.90;;;;;;5091373;28;20036;-56
2021/11/19 04:03:18;;;;;;;;;;;7.30;99.90;;;;;;5091872;28;20480;-56
2021/11/19 04:05:45;;;;;;;26.15;13.50;;;7.30;99.90;;;;;;5073018;28;19904;-57
2021/11/19 04:08:12;;;;;;;30.75;11.98;;;7.30;99.90;;;;;;5090691;28;20107;-56
2021/11/19 04:10:39;;;;;;;24.48;12.82;;;7.30;99.90;;;;;;5091219;28;20031;-56
2021/11/19 04:13:06;;;;;;;30.08;13.75;;;7.30;99.90;;;;;;5090714;28;20051;-57
2021/11/19 04:15:37;;;;;;;27.55;14.07;;;7.30;99.90;;;;;;5091313;28;20047;-57
2021/11/19 04:18:03;;;;;;;25.33;13.32;;;7.10;99.90;;;;;;5090699;28;20051;-56
2021/11/19 04:20:30;;;;;;;23.15;12.73;;;7.10;99.90;;;;;;5090907;28;20381;-56
2021/11/19 04:22:56;;;;;;;34.15;13.73;;;7.20;99.90;;;;;;5089524;28;20084;-71
2021/11/19 04:25:23;;;;;;;31.85;13.88;;;7.20;99.90;;;;;;5070766;28;20104;-56
2021/11/19 04:27:49;;;;;;;24.10;13.07;;;7.20;99.90;;;;;;5071952;28;20107;-56
2021/11/19 04:30:22;;;;;;;27.70;13.00;;;7.20;99.90;;;;;;5071639;28;20033;-57
2021/11/19 04:32:49;;;;;;;41.50;15.07;;;7.20;99.90;;;;;;5070978;28;20336;-56
2021/11/19 04:35:16;;;;;;;38.83;15.95;;;7.10;99.90;;;;;;5070202;28;20024;-56
2021/11/19 04:37:42;;;;;;;36.25;14.15;;;7.10;99.90;;;;;;5052666;28;20029;-56
2021/11/19 04:40:09;;;;;;;32.58;14.43;;;7.10;99.90;;;;;;5052131;28;20033;-56
2021/11/19 04:42:36;;;;;;;43.10;15.35;;;7.00;99.90;;;;;;5074168;28;20032;-56
2021/11/19 04:45:05;;;;;;;29.35;14.45;;;7.00;99.90;;;;;;5074100;28;20113;-56
2021/11/19 04:47:30;;;;;;;28.23;14.43;;;7.00;99.90;;;;;;5056136;28;20074;-56
2021/11/19 04:49:56;;;;;;;30.50;16.25;;;7.10;99.90;;;;;;5074113;28;20064;-56
2021/11/19 04:52:22;;;;;;;32.55;14.57;;;7.10;99.90;;;;;;5074521;28;20035;-56
2021/11/19 04:54:47;;;;;;;25.73;14.30;;;7.00;99.90;;;;;;5074454;28;20103;-56
2021/11/19 04:57:13;;;;;;;37.78;16.90;;;6.90;99.90;;;;;;5073447;28;20510;-56
2021/11/19 04:59:40;;;;;;;33.85;15.43;;;6.90;99.90;;;;;;5074141;28;20069;-56
2021/11/19 05:02:10;;;;;;;40.35;15.68;;;7.00;99.90;;;;;;5055604;28;20024;-57
2021/11/19 05:04:36;;;;;;;32.88;16.23;;;7.00;99.90;;;;;;5074130;28;20120;-56
2021/11/19 05:07:02;;;;;;;27.27;13.90;;;7.10;99.90;;;;;;5073447;28;20169;-55
2021/11/19 05:09:30;;;;;;;31.85;14.95;;;7.20;99.90;;;;;;5073964;28;20380;-56
2021/11/19 05:12:04;;;;;;;30.15;14.23;;;7.20;99.90;;;;;;5073569;28;20063;-57
2021/11/19 05:14:32;;;;;;;27.05;14.50;;;7.20;99.90;;;;;;5056024;28;20032;-56
2021/11/19 05:16:59;;;;;;;35.67;15.13;;;7.30;99.90;;;;;;5073466;28;20028;-57
2021/11/19 05:19:25;;;;;;;27.35;14.25;;;7.20;99.90;;;;;;5055036;28;20550;-56
2021/11/19 05:21:51;;;;;;;31.98;13.68;;;7.30;99.90;;;;;;5054138;28;20060;-56
2021/11/19 05:24:17;;;;;;;33.97;14.02;;;7.30;99.90;;;;;;5053150;28;20363;-57
2021/11/19 05:26:46;;;;;;;31.08;13.75;;;7.30;99.90;;;;;;5053567;28;20458;-57
2021/11/19 05:29:12;;;;;;;23.70;13.57;;;7.30;99.90;;;;;;5053054;28;20029;-57
2021/11/19 05:31:38;;;;;;;34.17;15.20;;;7.30;99.90;;;;;;5035808;28;20040;-57
2021/11/19 05:34:05;;;;;;;26.33;15.82;;;7.20;99.90;;;;;;5053213;28;20032;-57
2021/11/19 05:36:31;;;;;;;31.80;14.43;;;7.10;99.90;;;;;;5053358;28;20327;-56
2021/11/19 05:38:57;;;;;;;32.97;14.98;;;7.10;99.90;;;;;;5053069;28;20032;-57
2021/11/19 05:41:25;;;;;;;27.95;14.88;;;7.20;99.90;;;;;;5053442;28;20029;-57
2021/11/19 05:43:52;;;;;;;23.98;13.02;;;7.20;99.90;;;;;;5053721;28;20360;-57
2021/11/19 05:46:20;;;;;;;34.95;15.25;;;7.20;99.90;;;;;;5053017;28;20110;-55
2021/11/19 05:48:48;;;;;;;27.95;13.75;;;7.30;99.90;;;;;;5053304;28;20029;-57
2021/11/19 05:51:14;;;;;;;28.58;12.68;;;7.40;99.90;;;;;;5051954;28;20447;-56
2021/11/19 05:53:41;;;;;;;27.65;13.70;;;7.40;99.90;;;;;;5035156;28;20036;-57
2021/11/19 05:56:07;;;;;;;24.95;13.02;;;7.40;99.90;;;;;;5052887;28;20021;-57
2021/11/19 05:58:32;;;;;;;28.42;15.35;;;7.40;99.90;;;;;;5035321;28;20078;-57
2021/11/19 06:01:04;;;;;;;25.58;14.45;;;7.40;99.90;;;;;;5052641;28;20097;-57
2021/11/19 06:03:30;;;;;;;;;;;7.40;99.90;;;;;;5053815;28;20029;-57
2021/11/19 06:05:56;;;;;;;26.45;13.02;;;7.40;99.90;;;;;;5053097;28;20258;-56
2021/11/19 06:08:22;;;;;;;32.53;14.70;;;7.50;99.90;;;;;;5053202;28;20467;-57
2021/11/19 06:10:52;;;;;;;31.48;15.57;;;7.40;99.90;;;;;;5034965;28;20025;-57
2021/11/19 06:13:32;;;;;;;30.85;14.52;;;7.30;99.90;;;;;;5052395;28;20094;-57
2021/11/19 06:16:02;;;;;;;28.48;14.57;;;7.40;99.90;;;;;;5052589;28;20408;-60
2021/11/19 06:18:32;;;;;;;25.63;13.85;;;7.40;99.90;;;;;;5053175;28;20053;-57
2021/11/19 06:21:03;;;;;;;36.67;14.65;;;7.60;99.90;;;;;;5034658;28;20028;-69
2021/11/19 06:23:35;;;;;;;31.25;15.80;;;7.60;99.90;;;;;;5053144;28;20067;-57
2021/11/19 06:26:04;;;;;;;26.30;14.40;;;7.60;99.90;;;;;;5034148;28;20033;-56
2021/11/19 06:28:34;;;;;;;30.55;15.43;;;7.60;99.90;;;;;;5052711;28;20043;-57
2021/11/19 06:31:00;;;;;;;31.77;15.32;;;7.60;99.90;;;;;;5018003;28;20501;-56
2021/11/19 06:33:27;;;;;;;29.20;15.50;;;7.50;99.90;;;;;;5034716;28;20028;-57
2021/11/19 06:35:52;;;;;;;31.23;15.05;;;7.60;99.90;;;;;;5052492;28;20025;-57
2021/11/19 06:38:20;;;;;;;28.08;15.57;;;7.50;99.90;;;;;;5051739;28;20275;-57
2021/11/19 06:40:46;;;;;;;28.40;16.35;;;7.60;99.90;;;;;;5052496;28;20520;-56
2021/11/19 06:43:12;;;;;;;34.97;16.80;;;7.60;99.90;;;;;;5051347;28;20026;-57
2021/11/19 06:45:38;;;;;;;35.22;17.45;;;7.60;99.90;;;;;;5052233;28;20313;-57
2021/11/19 06:48:06;;;;;;;32.50;16.40;;;7.60;99.90;;;;;;5051018;28;20043;-57
2021/11/19 06:50:34;;;;;;;32.22;17.55;;;7.60;99.90;;;;;;5052129;28;20033;-57
2021/11/19 06:53:00;;;;;;;31.73;17.13;;;7.50;99.90;;;;;;5051298;28;20036;-68
2021/11/19 06:55:27;;;;;;;28.73;16.17;;;7.60;99.90;;;;;;5051804;28;20025;-57
2021/11/19 06:57:53;;;;;;;35.25;17.77;;;7.50;99.90;;;;;;5051918;28;20033;-58
2021/11/19 07:00:23;;;;;;;32.75;16.13;;;7.50;99.90;;;;;;5051510;28;20104;-57
2021/11/19 07:02:49;;;;;;;33.17;16.83;;;7.40;99.90;;;;;;5052303;28;20065;-58
2021/11/19 07:05:15;;;;;;;32.13;16.10;;;7.40;99.90;;;;;;5032112;28;20029;-57
2021/11/19 07:07:41;;;;;;;34.47;16.92;;;7.40;99.90;;;;;;5033863;28;20449;-56
2021/11/19 07:10:09;;;;;;;34.45;16.95;;;7.40;99.90;;;;;;5051208;28;20028;-57
2021/11/19 07:12:35;;;;;;;41.55;18.27;;;7.50;99.90;;;;;;5051555;28;20067;-56
2021/11/19 07:15:02;;;;;;;34.30;17.38;;;7.50;99.90;;;;;;5033513;28;20037;-70
2021/11/19 07:17:28;;;;;;;38.97;18.00;;;7.50;99.90;;;;;;5051080;28;20033;-56
2021/11/19 07:19:53;;;;;;;35.50;18.27;;;7.40;99.90;;;;;;5033720;28;20055;-57
2021/11/19 07:22:19;;;;;;;39.38;17.42;;;7.50;99.90;;;;;;5016371;28;20127;-57
2021/11/19 07:24:45;;;;;;;31.10;17.50;;;7.40;99.90;;;;;;5051254;28;20025;-56
2021/11/19 07:27:12;;;;;;;32.78;17.55;;;7.40;99.90;;;;;;5050666;28;20029;-58
2021/11/19 07:29:39;;;;;;;36.13;18.85;;;7.40;99.90;;;;;;5051201;28;20036;-57
2021/11/19 07:32:05;;;;;;;37.33;17.40;;;7.40;99.90;;;;;;5032939;28;20032;-57
2021/11/19 07:34:31;;;;;;;34.13;17.75;;;7.40;99.90;;;;;;5051347;28;20036;-57
2021/11/19 07:36:57;;;;;;;36.35;18.25;;;7.40;99.90;;;;;;5051657;28;20379;-57
2021/11/19 07:39:23;;;;;;;35.22;18.30;;;7.40;99.90;;;;;;5032567;28;20381;-56
2021/11/19 07:41:49;;;;;;;28.90;16.98;;;7.40;99.90;;;;;;5050696;28;20496;-56
2021/11/19 07:44:14;;;;;;;35.80;18.92;;;7.40;99.90;;;;;;5050579;28;20095;-56
2021/11/19 07:46:40;;;;;;;32.35;17.73;;;7.40;99.90;;;;;;5032916;28;20102;-56
2021/11/19 07:49:07;;;;;;;37.08;16.95;;;7.50;99.90;;;;;;5050872;28;20430;-57
2021/11/19 07:51:35;;;;;;;33.95;18.10;;;7.40;99.90;;;;;;5033122;28;20029;-57
2021/11/19 07:54:03;;;;;;;42.00;18.23;;;7.40;99.90;;;;;;5051062;28;20021;-57
2021/11/19 07:56:30;;;;;;;37.03;18.40;;;7.40;99.90;;;;;;5051510;28;20079;-57
2021/11/19 07:59:01;;;;;;;36.53;18.45;;;7.40;99.90;;;;;;5051140;28;20036;-57
2021/11/19 08:01:26;;;;;;;37.30;18.87;;;7.50;99.90;;;;;;5050113;28;20035;-57
2021/11/19 08:03:52;;;;;;;39.08;18.63;;;7.50;99.90;;;;;;5050914;28;20342;-57
2021/11/19 08:06:18;;;;;;;37.85;18.45;;;7.50;99.90;;;;;;5032127;28;20036;-57
2021/11/19 08:08:46;;;;;;;34.30;18.05;;;7.50;99.90;;;;;;5032939;28;20043;-57
2021/11/19 08:11:13;;;;;;;32.85;18.27;;;7.50;99.90;;;;;;5050318;28;20029;-57
2021/11/19 08:13:39;;;;;;;38.00;18.65;;;7.60;99.90;;;;;;5032811;28;20383;-57
2021/11/19 08:16:05;;;;;;;38.53;17.95;;;7.60;99.90;;;;;;5031880;28;20409;-64
2021/11/19 08:18:38;;;;;;;34.90;16.20;;;7.70;99.90;;;;;;5050875;28;20060;-57
2021/11/19 08:21:07;;;;;;;41.63;18.30;;;7.60;99.90;;;;;;5054793;28;20108;-57
2021/11/19 08:23:43;;;;;;;36.42;17.33;;;7.60;99.90;;;;;;5037385;28;20029;-56
2021/11/19 08:26:26;;;;;;;37.40;19.05;;;7.60;99.90;;;;;;5060323;28;20060;-57
2021/11/19 08:28:52;;;;;;;31.92;16.15;;;7.60;99.90;;;;;;5032900;28;20025;-57
2021/11/19 08:31:21;;;;;;;37.78;19.40;;;7.60;99.90;;;;;;5050128;28;20463;-58
2021/11/19 08:33:48;;;;;;;32.38;18.08;;;7.50;99.90;;;;;;5050543;28;20029;-58
2021/11/19 08:36:16;;;;;;;35.25;17.27;;;7.60;99.90;;;;;;5049835;28;20162;-57
2021/11/19 08:38:42;;;;;;;41.28;16.52;;;7.60;99.90;;;;;;5067136;28;20036;-60
2021/11/19 08:41:09;;;;;;;35.10;17.27;;;7.80;99.90;;;;;;5067089;28;20025;-58
2021/11/19 08:43:38;;;;;;;39.20;17.48;;;7.80;99.90;;;;;;5050562;28;20024;-56
2021/11/19 08:46:06;;;;;;;32.42;16.52;;;7.70;99.90;;;;;;5063382;28;20033;-57
2021/11/19 08:48:34;;;;;;;27.98;16.17;;;7.70;99.90;;;;;;5053369;28;20059;-57
2021/11/19 08:51:01;;;;;;;28.58;16.08;;;7.70;99.90;;;;;;5070189;28;20539;-58
2021/11/19 08:53:27;;;;;;;28.58;15.55;;;7.70;99.90;;;;;;5055679;28;20300;-56
2021/11/19 08:55:57;;;;;;;27.23;14.60;;;7.50;99.90;;;;;;5069480;28;20098;-57
2021/11/19 08:58:25;;;;;;;30.77;16.23;;;7.60;99.90;;;;;;5044766;28;20036;-57
2021/11/19 09:00:54;;;;;;;30.15;16.63;;;7.60;99.90;;;;;;5032377;28;20482;-58
2021/11/19 09:03:19;;;;;;;28.90;16.17;;;7.50;99.90;;;;;;5032438;28;20455;-57
2021/11/19 09:05:48;;;;;;;31.00;16.25;;;7.50;99.90;;;;;;5032588;28;20056;-57
2021/11/19 09:08:16;;;;;;;30.23;16.88;;;7.50;99.90;;;;;;5050116;28;20033;-57
2021/11/19 09:10:43;;;;;;;25.95;15.45;;;7.60;99.90;;;;;;5067239;28;20035;-58
2021/11/19 09:13:09;;;;;;;27.23;16.10;;;7.50;99.90;;;;;;5058554;28;20033;-57
2021/11/19 09:15:36;;;;;;;29.70;16.20;;;7.60;99.90;;;;;;5035932;28;20504;-58
2021/11/19 09:18:19;;;;;;;28.45;15.57;;;7.60;99.90;;;;;;5062082;28;20060;-58
2021/11/19 09:20:54;;;;;;;29.70;15.70;;;7.60;99.90;;;;;;5080558;28;20020;-64
2021/11/19 09:23:24;;;;;;;32.13;17.05;;;7.60;99.90;;;;;;5074737;28;20060;-56
2021/11/19 09:25:51;;;;;;;32.53;18.65;;;7.70;99.90;;;;;;5072399;28;20035;-57
2021/11/19 09:28:21;;;;;;;28.92;16.13;;;7.60;99.90;;;;;;5083582;28;20478;-57
2021/11/19 09:30:49;;;;;;;26.75;16.50;;;7.70;99.90;;;;;;5049992;28;20037;-57
2021/11/19 09:33:18;;;;;;;29.50;16.63;;;7.70;99.90;;;;;;5062429;28;20146;-58
2021/11/19 09:35:45;;;;;;;28.42;15.52;;;7.70;99.90;;;;;;5050812;28;20071;-57
2021/11/19 09:38:12;;;;;;;28.70;17.92;;;7.70;99.90;;;;;;5067721;28;20032;-62
2021/11/19 09:40:46;;;;;;;28.77;17.50;;;7.70;99.90;;;;;;5071213;28;20109;-58
2021/11/19 09:43:34;;;;;;;29.92;16.83;;;7.70;99.90;;;;;;5051642;28;20516;-61
2021/11/19 09:46:17;;;;;;;29.15;16.58;;;7.60;99.90;;;;;;5066312;28;20041;-56
2021/11/19 09:49:13;;;;;;;34.20;16.42;;;7.60;99.90;;;;;;5064877;28;20052;-57
2021/11/19 09:52:15;;;;;;;33.83;17.45;;;7.80;99.90;;;;;;5066928;28;20441;-57
2021/11/19 09:55:03;;;;;;;26.85;15.23;;;7.80;99.90;;;;;;5070537;28;20546;-57
2021/11/19 09:57:36;;;;;;;33.17;17.40;;;7.70;99.90;;;;;;5068026;28;20055;-56
2021/11/19 10:00:32;;;;;;;27.30;16.17;;;7.80;99.90;;;;;;5069805;28;20036;-57
2021/11/19 10:03:17;;;;;;;31.55;16.20;;;7.80;99.90;;;;;;5082474;28;20463;-57
2021/11/19 10:06:22;;;;;;;31.65;16.50;;;7.90;99.90;;;;;;5065890;28;20484;-57
2021/11/19 10:08:55;;;;;;;31.83;15.30;;;7.90;99.90;;;;;;5068338;28;20401;-58
2021/11/19 10:11:29;;;;;;;27.63;17.02;;;8.80;99.90;;;;;;5080291;28;20082;-59
2021/11/19 10:14:42;;;;;;;28.45;15.70;;;8.70;99.90;;;;;;5075123;28;20032;-67
2021/11/19 10:17:13;;;;;;;27.80;15.43;;;8.30;99.90;;;;;;5057748;28;20040;-56
2021/11/19 10:19:58;;;;;;;31.45;17.10;;;8.20;99.90;;;;;;5079486;28;20424;-57
2021/11/19 10:22:33;;;;;;;33.20;17.55;;;8.10;99.90;;;;;;5072112;28;20043;-58
2021/11/19 10:25:17;;;;;;;28.38;16.23;;;8.00;99.90;;;;;;5054277;28;20035;-57
2021/11/19 10:27:49;;;;;;;28.38;16.08;;;8.10;99.90;;;;;;5055452;28;20021;-57
2021/11/19 10:30:26;;;;;;;39.80;21.13;;;8.00;99.90;;;;;;5071601;28;20078;-58
2021/11/19 10:32:53;;;;;;;34.13;18.13;;;8.00;99.90;;;;;;5072940;28;20078;-57
2021/11/19 10:35:46;;;;;;;29.00;16.60;;;8.20;99.90;;;;;;5073456;28;20024;-57
2021/11/19 10:38:43;;;;;;;27.42;15.85;;;8.10;99.90;;;;;;5072247;28;20423;-57
2021/11/19 10:41:39;;;;;;;31.98;17.88;;;8.30;99.90;;;;;;5059148;28;20038;-58
2021/11/19 10:44:31;;;;;;;37.42;15.75;;;8.10;99.90;;;;;;5087419;28;20111;-57
2021/11/19 10:47:18;;;;;;;;;;;8.20;99.90;;;;;;5078962;28;20068;-58
2021/11/19 10:50:05;;;;;;;30.30;16.88;;;8.30;99.90;;;;;;5078593;28;19917;-57
2021/11/19 10:52:59;;;;;;;30.58;15.60;;;8.30;99.90;;;;;;5087301;28;20031;-57
2021/11/19 10:56:14;;;;;;;32.05;18.48;;;8.30;99.90;;;;;;5081911;28;20043;-57
2021/11/19 10:58:51;;;;;;;30.05;17.02;;;8.10;99.90;;;;;;5059081;28;20071;-56
2021/11/19 11:01:23;;;;;;;32.60;18.55;;;8.10;99.90;;;;;;5072543;28;20165;-58
2021/11/19 11:03:57;;;;;;;31.88;16.63;;;8.10;99.90;;;;;;5067712;28;20016;-57
2021/11/19 11:06:40;;;;;;;27.83;16.42;;;8.20;99.90;;;;;;5078571;28;20016;-58
2021/11/19 11:09:37;;;;;;;29.35;15.55;;;8.20;99.90;;;;;;5052930;28;20059;-57
2021/11/19 11:12:16;;;;;;;30.40;16.63;;;8.10;99.90;;;;;;5070916;28;20420;-59
2021/11/19 11:14:44;;;;;;;30.38;16.17;;;8.30;99.90;;;;;;5069009;28;20021;-56
2021/11/19 11:17:33;;;;;;;31.55;15.35;;;8.40;99.90;;;;;;5070618;28;20040;-59
2021/11/19 11:20:02;;;;;;;29.70;16.73;;;8.30;99.90;;;;;;5053094;28;20075;-57
2021/11/19 11:22:34;;;;;;;27.10;15.02;;;8.40;99.90;;;;;;5086880;28;20063;-58
2021/11/19 11:25:06;;;;;;;;;;;8.50;99.90;;;;;;5076855;28;20031;-57
2021/11/19 11:27:48;;;;;;;31.42;15.90;;;8.60;99.90;;;;;;5080773;28;19915;-57
2021/11/19 11:30:22;;;;;;;;;;;9.30;99.90;;;;;;5069290;28;20028;-60
2021/11/19 11:32:57;;;;;;;44.22;24.35;;;8.80;99.90;;;;;;5074877;28;19904;-58
2021/11/19 11:35:34;;;;;;;20.52;12.70;;;8.70;99.90;;;;;;5090439;28;20074;-58
2021/11/19 11:38:06;;;;;;;22.90;11.88;;;8.80;99.90;;;;;;5090973;28;20031;-62
2021/11/19 11:40:36;;;;;;;;;;;10.40;99.90;;;;;;5074688;28;20058;-59
2021/11/19 11:43:17;;;;;;;24.15;13.82;;;10.80;99.90;;;;;;5068347;28;20019;-60
2021/11/19 11:46:05;;;;;;;21.73;13.20;;;9.90;99.90;;;;;;5073938;28;20029;-58
2021/11/19 11:48:45;;;;;;;25.85;11.80;;;9.60;99.90;;;;;;5055468;28;20028;-58
2021/11/19 11:51:20;;;;;;;27.55;12.05;;;9.40;99.90;;;;;;5069675;28;20036;-57
2021/11/19 11:53:55;;;;;;;21.08;11.48;;;9.40;99.90;;;;;;5035347;28;20489;-57
2021/11/19 11:56:31;;;;;;;22.00;12.02;;;9.20;99.90;;;;;;5058349;28;20020;-60
2021/11/19 11:59:06;;;;;;;17.10;11.02;;;9.30;99.90;;;;;;5090288;28;20094;-57
2021/11/19 12:01:56;;;;;;;20.58;10.90;;;9.20;99.90;;;;;;5089796;28;20104;-57
2021/11/19 12:04:24;;;;;;;17.52;10.73;;;9.10;99.90;;;;;;5071606;28;20036;-57
2021/11/19 12:07:07;;;;;;;23.52;11.10;;;9.20;99.90;;;;;;5090692;28;20032;-57
2021/11/19 12:09:44;;;;;;;15.00;8.93;;;9.30;99.90;;;;;;5090124;28;20366;-58
2021/11/19 12:12:25;;;;;;;16.77;9.52;;;9.30;99.90;;;;;;5090613;28;20036;-57
2021/11/19 12:14:57;;;;;;;16.95;9.98;;;9.30;99.90;;;;;;5072801;28;20412;-58
2021/11/19 12:17:39;;;;;;;13.75;8.20;;;9.40;99.90;;;;;;5071176;28;20081;-58
2021/11/19 12:20:36;;;;;;;16.23;8.65;;;9.50;99.90;;;;;;5090219;28;20028;-57
2021/11/19 12:23:29;;;;;;;16.08;8.13;;;9.40;99.90;;;;;;5055581;28;20036;-57
2021/11/19 12:26:20;;;;;;;13.80;7.10;;;9.50;99.90;;;;;;5072241;28;20441;-57
2021/11/19 12:28:53;;;;;;;13.55;7.82;;;9.50;99.90;;;;;;5090228;28;20044;-62
2021/11/19 12:31:33;;;;;;;10.57;6.40;;;9.60;99.90;;;;;;5071964;28;20200;-57
2021/11/19 12:34:08;;;;;;;11.38;6.82;;;9.50;99.90;;;;;;5090345;28;20020;-57
2021/11/19 12:36:54;;;;;;;8.52;6.43;;;9.50;99.90;;;;;;5071299;28;20111;-58
2021/11/19 12:39:20;;;;;;;12.23;6.63;;;9.60;99.90;;;;;;5090151;28;20111;-72
2021/11/19 12:42:02;;;;;;;13.25;6.38;;;9.50;99.90;;;;;;5072227;28;20365;-57
2021/11/19 12:44:39;;;;;;;14.07;6.47;;;9.60;99.90;;;;;;5071678;28;20064;-58
2021/11/19 12:47:26;;;;;;;11.50;6.22;;;9.60;99.90;;;;;;5089944;28;20036;-58
2021/11/19 12:50:25;;;;;;;7.63;5.10;;;9.60;99.90;;;;;;5090226;28;20032;-57
2021/11/19 12:53:09;;;;;;;6.97;4.43;;;9.70;99.90;;;;;;5072011;28;20020;-56
2021/11/19 12:55:41;;;;;;;9.00;4.35;;;9.70;99.90;;;;;;5089308;28;20078;-57
2021/11/19 12:58:25;;;;;;;10.82;6.50;;;9.60;99.90;;;;;;5090172;28;20377;-57
2021/11/19 13:01:10;;;;;;;10.75;4.75;;;9.60;99.90;;;;;;5083734;28;20463;-56
2021/11/19 13:03:47;;;;;;;7.97;5.05;;;9.60;99.90;;;;;;5072584;28;20482;-58
2021/11/19 13:06:28;;;;;;;9.20;5.13;;;9.70;99.90;;;;;;5080769;28;20047;-57
2021/11/19 13:09:12;;;;;;;7.93;5.15;;;9.70;99.90;;;;;;5093797;28;20032;-58